Time;durP1;ratioP1;P1;durP2;ratioP2;P2;SDS_P1;SDS_P2;PMS_P1;PMS_P2;Temp;Humidity;BMP_temperature;BMP_pressure;BME280_temperature;BME280_humidity;BME280_pressure;Samples;Min_cycle;Max_cycle;Signal;HPM_P1;HPM_P2
2022/07/22 00:02:12;;;;;;;44.50;33.35;;;;;;;19.85;82.00;101397.91;5012710;28;20075;-74
2022/07/22 00:04:38;;;;;;;49.05;34.95;;;;;;;19.85;81.38;101398.75;5012373;28;20024;-75
2022/07/22 00:07:03;;;;;;;46.85;33.38;;;;;;;19.83;81.85;101394.53;5012938;28;20041;-74
2022/07/22 00:09:29;;;;;;;46.60;33.47;;;;;;;19.66;82.42;101405.84;5012276;28;20108;-74
2022/07/22 00:11:54;;;;;;;48.88;34.90;;;;;;;19.58;83.42;101410.69;5030428;28;20028;-74
2022/07/22 00:14:20;;;;;;;47.63;33.08;;;;;;;19.72;82.76;101399.53;5012274;28;20026;-74
2022/07/22 00:16:45;;;;;;;43.42;32.58;;;;;;;19.72;82.44;101416.03;5029174;28;20096;-74
2022/07/22 00:19:11;;;;;;;46.28;31.85;;;;;;;19.77;82.12;101399.78;5012239;28;20058;-74
2022/07/22 00:21:36;;;;;;;46.40;31.40;;;;;;;19.61;83.00;101408.38;5011997;28;20025;-74
2022/07/22 00:24:03;;;;;;;38.72;29.98;;;;;;;19.74;82.70;101408.41;5011759;28;20111;-74
2022/07/22 00:26:28;;;;;;;42.20;32.47;;;;;;;19.89;82.00;101404.69;5029605;28;20033;-74
2022/07/22 00:28:54;;;;;;;37.67;28.75;;;;;;;20.03;81.25;101411.91;5029807;28;20033;-74
2022/07/22 00:31:19;;;;;;;41.05;30.55;;;;;;;20.03;80.88;101407.25;5012105;28;20021;-74
2022/07/22 00:33:44;;;;;;;53.67;32.95;;;;;;;19.46;81.83;101415.88;5012205;28;20091;-74
2022/07/22 00:36:10;;;;;;;47.03;31.50;;;;;;;19.38;82.63;101418.81;5028742;28;20353;-74
2022/07/22 00:38:35;;;;;;;49.00;31.42;;;;;;;18.94;82.95;101428.22;5029515;28;20049;-73
2022/07/22 00:41:01;;;;;;;54.95;31.73;;;;;;;18.72;83.92;101424.69;5012233;28;20028;-74
2022/07/22 00:43:27;;;;;;;56.97;33.05;;;;;;;18.59;84.85;101425.38;5029375;28;20017;-74
2022/07/22 00:45:52;;;;;;;63.08;35.10;;;;;;;18.30;85.53;101431.00;5012004;28;20052;-74
2022/07/22 00:48:18;;;;;;;49.97;30.13;;;;;;;18.32;85.36;101428.91;5011538;28;20100;-74
2022/07/22 00:50:44;;;;;;;64.20;36.60;;;;;;;18.04;86.22;101437.88;5011834;28;20029;-74
2022/07/22 00:53:10;;;;;;;54.28;32.42;;;;;;;18.02;87.01;101434.50;5029526;28;20026;-74
2022/07/22 00:55:36;;;;;;;54.25;32.42;;;;;;;18.11;86.26;101433.31;5028125;28;20025;-74
2022/07/22 00:58:03;;;;;;;56.60;30.13;;;;;;;17.91;85.92;101437.75;5029442;28;20024;-74
2022/07/22 01:00:29;;;;;;;52.13;28.88;;;;;;;18.09;85.02;101435.41;5029804;28;20392;-74
2022/07/22 01:02:54;;;;;;;44.17;26.92;;;;;;;18.11;85.45;101438.81;5013363;28;20022;-75
2022/07/22 01:05:20;;;;;;;42.47;25.50;;;;;;;18.14;85.06;101441.19;5015917;28;20156;-74
2022/07/22 01:07:45;;;;;;;42.85;26.13;;;;;;;18.18;85.11;101439.72;5033268;28;20032;-75
2022/07/22 01:10:10;;;;;;;31.17;20.90;;;;;;;18.30;84.56;101447.44;5015744;28;20353;-75
2022/07/22 01:12:36;;;;;;;28.55;18.48;;;;;;;18.11;84.54;101444.28;5032579;28;20045;-74
2022/07/22 01:15:02;;;;;;;22.30;14.38;;;;;;;17.89;85.27;101448.06;5015777;28;20048;-74
2022/07/22 01:17:27;;;;;;;21.92;11.50;;;;;;;17.61;86.57;101437.78;5015882;28;20029;-74
2022/07/22 01:19:53;;;;;;;17.17;9.60;;;;;;;17.34;87.88;101446.63;5016166;28;20026;-74
2022/07/22 01:22:18;;;;;;;17.17;9.00;;;;;;;17.37;88.65;101440.81;5017222;28;20025;-76
2022/07/22 01:24:44;;;;;;;16.65;8.48;;;;;;;17.33;88.23;101450.41;5015819;28;20025;-76
2022/07/22 01:27:09;;;;;;;8.35;6.18;;;;;;;17.24;87.61;101463.34;5016580;28;20029;-77
2022/07/22 01:29:34;;;;;;;11.82;5.63;;;;;;;17.03;88.49;101455.03;5016738;28;20028;-78
2022/07/22 01:32:00;;;;;;;11.93;6.55;;;;;;;16.88;88.58;101456.88;5019303;28;20541;-81
2022/07/22 01:34:25;;;;;;;11.80;7.82;;;;;;;16.73;89.13;101462.31;5035283;28;20055;-77
2022/07/22 01:36:51;;;;;;;15.52;7.72;;;;;;;16.63;88.12;101470.75;5034638;28;20044;-77
2022/07/22 01:39:16;;;;;;;7.47;4.45;;;;;;;16.49;88.77;101466.91;5036166;28;20021;-77
2022/07/22 01:41:43;;;;;;;13.00;5.20;;;;;;;16.53;88.21;101470.13;5017766;28;20095;-79
2022/07/22 01:44:08;;;;;;;11.80;4.90;;;;;;;16.36;87.52;101463.94;5032578;28;20396;-77
2022/07/22 01:46:33;;;;;;;11.65;4.63;;;;;;;16.26;87.35;101479.72;5033933;28;20022;-77
2022/07/22 01:48:59;;;;;;;8.55;4.65;;;;;;;16.15;86.94;101471.94;5015855;28;20102;-76
2022/07/22 01:51:24;;;;;;;13.07;5.30;;;;;;;16.42;87.08;101479.59;5015898;28;20048;-77
2022/07/22 01:53:50;;;;;;;15.38;5.72;;;;;;;16.42;85.89;101479.59;5015360;28;20031;-77
2022/07/22 01:56:15;;;;;;;18.52;5.47;;;;;;;16.38;85.38;101489.22;5010850;28;20038;-76
2022/07/22 01:58:41;;;;;;;17.40;5.30;;;;;;;16.38;85.32;101489.22;5026796;28;20028;-76
2022/07/22 02:01:07;;;;;;;16.88;5.30;;;;;;;16.21;84.83;101493.06;5031458;28;20025;-75
2022/07/22 02:03:32;;;;;;;11.82;5.35;;;;;;;16.23;84.59;101491.00;5014922;28;20030;-75
2022/07/22 02:05:58;;;;;;;12.50;5.68;;;;;;;16.34;84.75;101487.88;5031491;28;20079;-75
2022/07/22 02:08:23;;;;;;;20.40;7.80;;;;;;;16.31;84.93;101488.25;5015150;28;20029;-76
2022/07/22 02:10:49;;;;;;;18.50;9.88;;;;;;;16.17;86.28;101497.19;5014442;28;20021;-75
2022/07/22 02:13:14;;;;;;;33.17;14.57;;;;;;;16.08;86.70;101492.81;5031227;28;20036;-75
2022/07/22 02:15:40;;;;;;;44.88;17.67;;;;;;;16.09;86.71;101489.03;5014701;28;20091;-75
2022/07/22 02:18:11;;;;;;;37.35;16.75;;;;;;;16.13;86.75;101490.41;5014591;28;20116;-75
2022/07/22 02:20:36;;;;;;;40.92;16.63;;;;;;;16.34;86.23;101497.94;5014571;28;20017;-75
2022/07/22 02:23:01;;;;;;;42.10;15.68;;;;;;;16.20;85.84;101496.84;5037540;28;20025;-75
2022/07/22 02:25:27;;;;;;;32.55;13.30;;;;;;;16.16;86.04;101506.41;5031765;28;20068;-75
2022/07/22 02:27:52;;;;;;;37.83;13.05;;;;;;;16.30;85.20;101502.94;5033848;28;20037;-75
2022/07/22 02:30:17;;;;;;;39.60;12.45;;;;;;;16.21;84.31;101502.13;5014382;28;20026;-75
2022/07/22 02:32:42;;;;;;;29.17;10.63;;;;;;;16.32;84.49;101500.88;5030872;28;20029;-75
2022/07/22 02:35:08;;;;;;;27.55;10.45;;;;;;;16.51;83.93;101500.41;5031874;28;20017;-75
2022/07/22 02:37:34;;;;;;;28.52;9.57;;;;;;;16.36;83.89;101502.19;5014197;28;20095;-75
2022/07/22 02:40:00;;;;;;;28.05;9.48;;;;;;;16.26;84.51;101507.91;5014155;28;20022;-75
2022/07/22 02:42:25;;;;;;;33.35;9.73;;;;;;;16.31;84.43;101507.38;5013862;28;20053;-75
2022/07/22 02:44:51;;;;;;;25.48;8.57;;;;;;;16.40;84.02;101503.53;5013951;28;20022;-75
2022/07/22 02:47:16;;;;;;;26.05;7.97;;;;;;;16.28;84.21;101513.19;5013949;28;20076;-75
2022/07/22 02:49:41;;;;;;;27.27;7.40;;;;;;;16.12;83.58;101510.56;5030468;28;20036;-75
2022/07/22 02:52:07;;;;;;;21.55;7.72;;;;;;;16.21;84.36;101510.31;5031634;28;20502;-75
2022/07/22 02:54:32;;;;;;;29.80;7.90;;;;;;;16.13;84.88;101517.72;5013539;28;20435;-75
2022/07/22 02:56:58;;;;;;;23.73;7.60;;;;;;;16.15;85.38;101515.66;5029895;28;20500;-75
2022/07/22 02:59:23;;;;;;;35.30;7.55;;;;;;;16.38;84.10;101527.47;5030178;28;20056;-75
2022/07/22 03:01:48;;;;;;;37.90;7.40;;;;;;;16.08;85.14;101525.59;5013287;28;20025;-75
2022/07/22 03:04:14;;;;;;;22.92;6.20;;;;;;;16.10;84.97;101523.53;5031047;28;20488;-75
2022/07/22 03:06:39;;;;;;;29.58;6.78;;;;;;;16.09;83.95;101516.38;5013861;28;20029;-75
2022/07/22 03:09:04;;;;;;;25.05;6.40;;;;;;;16.12;83.75;101521.47;5013204;28;20167;-75
2022/07/22 03:11:30;;;;;;;28.75;6.43;;;;;;;16.08;83.60;101531.06;5013560;28;20108;-75
2022/07/22 03:13:55;;;;;;;22.15;6.10;;;;;;;16.09;84.25;101522.66;5013604;28;20037;-75
2022/07/22 03:16:21;;;;;;;31.70;5.43;;;;;;;16.00;83.86;101524.59;5013701;28;20476;-75
2022/07/22 03:18:46;;;;;;;24.38;5.10;;;;;;;16.10;83.43;101528.97;5030380;28;20025;-75
2022/07/22 03:21:11;;;;;;;23.55;5.63;;;;;;;16.18;83.56;101527.09;5029843;28;20036;-75
2022/07/22 03:23:37;;;;;;;53.70;6.88;;;;;;;16.29;83.23;101534.00;5013682;28;20028;-75
2022/07/22 03:26:03;;;;;;;22.88;4.97;;;;;;;16.09;83.62;101521.81;5029667;28;20124;-75
2022/07/22 03:28:28;;;;;;;25.25;4.72;;;;;;;15.98;84.06;101521.22;5016846;28;20033;-75
2022/07/22 03:30:54;;;;;;;34.22;5.88;;;;;;;15.85;84.29;101526.38;5013155;28;20026;-79
2022/07/22 03:33:19;;;;;;;30.80;5.78;;;;;;;15.84;85.68;101521.94;5029919;28;20068;-74
2022/07/22 03:35:44;;;;;;;17.67;4.95;;;;;;;15.98;85.62;101532.13;5031851;28;20032;-75
2022/07/22 03:38:10;;;;;;;23.58;5.32;;;;;;;16.09;84.52;101524.56;5031412;28;20064;-75
2022/07/22 03:40:35;;;;;;;22.52;5.18;;;;;;;16.07;84.09;101529.34;5014129;28;20030;-75
2022/07/22 03:43:00;;;;;;;28.75;5.43;;;;;;;15.83;85.44;101522.97;5030442;28;20113;-75
2022/07/22 03:45:26;;;;;;;25.90;5.07;;;;;;;16.11;84.90;101536.19;5013859;28;20040;-75
2022/07/22 03:47:54;;;;;;;20.83;4.15;;;;;;;16.07;83.62;101529.34;5013266;28;20029;-75
2022/07/22 03:50:19;;;;;;;17.67;4.45;;;;;;;15.96;84.33;101528.72;5012883;28;20025;-76
2022/07/22 03:52:45;;;;;;;23.33;4.30;;;;;;;16.23;83.84;101529.25;5013196;28;20021;-75
2022/07/22 03:55:10;;;;;;;21.90;4.50;;;;;;;16.21;83.66;101531.31;5012488;28;20048;-75
2022/07/22 03:57:35;;;;;;;28.52;5.00;;;;;;;16.30;83.02;101524.81;5012651;28;20021;-75
2022/07/22 04:00:01;;;;;;;22.10;4.10;;;;;;;16.46;82.81;101530.16;5028586;28;20489;-75
2022/07/22 04:02:26;;;;;;;18.65;4.18;;;;;;;16.25;82.02;101527.22;5029887;28;20033;-75
2022/07/22 04:04:51;;;;;;;18.77;3.92;;;;;;;16.14;83.29;101530.34;5011984;28;20044;-75
2022/07/22 04:07:17;;;;;;;15.55;4.05;;;;;;;16.27;82.59;101530.63;5029563;28;20033;-75
2022/07/22 04:09:42;;;;;;;16.58;4.15;;;;;;;16.20;83.57;101529.63;5011898;28;20028;-75
2022/07/22 04:12:08;;;;;;;22.02;4.03;;;;;;;16.26;83.58;101524.31;5012279;28;20506;-75
2022/07/22 04:14:33;;;;;;;17.17;3.65;;;;;;;16.05;83.11;101529.53;5029381;28;20017;-75
2022/07/22 04:16:58;;;;;;;22.58;4.13;;;;;;;16.15;83.51;101518.38;5012739;28;20072;-75
2022/07/22 04:19:24;;;;;;;15.75;4.20;;;;;;;16.35;82.92;101527.81;5012332;28;20056;-75
2022/07/22 04:21:49;;;;;;;31.38;4.45;;;;;;;16.07;82.61;101529.34;5028628;28;20021;-75
2022/07/22 04:24:15;;;;;;;15.00;3.75;;;;;;;16.08;83.34;101537.38;5029243;28;20546;-74
2022/07/22 04:26:40;;;;;;;14.80;4.05;;;;;;;16.28;82.99;101532.31;5028449;28;20029;-75
2022/07/22 04:29:06;;;;;;;19.80;4.78;;;;;;;16.24;82.83;101542.75;5029680;28;20021;-75
2022/07/22 04:31:32;;;;;;;16.38;3.78;;;;;;;16.00;83.53;101541.00;5012098;28;20025;-75
2022/07/22 04:33:58;;;;;;;29.48;4.45;;;;;;;16.15;83.27;101543.81;5011554;28;20087;-74
2022/07/22 04:36:23;;;;;;;10.82;4.55;;;;;;;16.39;82.71;101551.03;5011025;28;20029;-75
2022/07/22 04:38:49;;;;;;;15.48;4.60;;;;;;;16.33;82.85;101551.75;5028590;28;20021;-75
2022/07/22 04:41:15;;;;;;;21.15;5.05;;;;;;;16.45;82.12;101555.78;5028497;28;20073;-75
2022/07/22 04:43:40;;;;;;;27.52;5.15;;;;;;;16.23;82.73;101567.50;5027676;28;20025;-76
2022/07/22 04:46:06;;;;;;;21.05;4.57;;;;;;;16.22;82.78;101543.94;5011124;28;20047;-75
2022/07/22 04:48:31;;;;;;;30.50;6.28;;;;;;;16.04;83.78;101546.09;5028880;28;20134;-75
2022/07/22 04:51:01;;;;;;;24.50;5.15;;;;;;;16.04;83.29;101551.53;5027058;28;20026;-75
2022/07/22 04:53:27;;;;;;;37.88;8.15;;;;;;;16.06;83.80;101554.97;5010861;28;20029;-75
2022/07/22 04:55:52;;;;;;;22.77;3.97;;;;;;;16.32;83.55;101549.22;5023509;28;20041;-75
2022/07/22 04:58:18;;;;;;;17.88;4.82;;;;;;;16.09;84.51;101543.69;5007475;28;20021;-75
2022/07/22 05:00:43;;;;;;;26.27;5.78;;;;;;;15.74;86.29;101556.78;5026878;28;20116;-74
2022/07/22 05:03:08;;;;;;;13.77;4.32;;;;;;;15.65;87.55;101553.25;5029013;28;20129;-75
2022/07/22 05:05:34;;;;;;;18.08;4.63;;;;;;;15.76;87.82;101551.16;5027300;28;20105;-74
2022/07/22 05:07:59;;;;;;;16.67;4.97;;;;;;;15.88;86.72;101558.78;5010958;28;20021;-75
2022/07/22 05:10:25;;;;;;;12.73;4.63;;;;;;;16.02;86.77;101558.03;5010543;28;20052;-74
2022/07/22 05:12:50;;;;;;;17.80;3.83;;;;;;;15.94;86.80;101563.56;5029517;28;20051;-75
2022/07/22 05:15:16;;;;;;;14.63;5.18;;;;;;;15.96;87.92;101556.03;5010835;28;20029;-76
2022/07/22 05:17:41;;;;;;;23.88;5.43;;;;;;;15.95;87.66;101558.94;5011147;28;20048;-76
2022/07/22 05:20:07;;;;;;;19.27;4.88;;;;;;;16.05;88.10;101556.00;5028263;28;20025;-76
2022/07/22 05:22:32;;;;;;;14.98;5.13;;;;;;;16.15;87.13;101553.91;5027572;28;20056;-76
2022/07/22 05:24:58;;;;;;;22.50;6.00;;;;;;;15.79;88.33;101570.78;5027314;28;20017;-76
2022/07/22 05:27:23;;;;;;;21.38;5.50;;;;;;;15.91;88.11;101563.91;5027756;28;20094;-76
2022/07/22 05:29:49;;;;;;;17.85;5.90;;;;;;;15.99;88.42;101568.50;5011267;28;20030;-78
2022/07/22 05:32:14;;;;;;;13.50;5.50;;;;;;;16.13;87.98;101561.44;5031406;28;20030;-78
2022/07/22 05:34:40;;;;;;;25.17;6.63;;;;;;;16.07;87.96;101567.59;5015415;28;20018;-78
2022/07/22 05:37:05;;;;;;;18.67;6.78;;;;;;;16.32;87.28;101571.94;5014397;28;20196;-79
2022/07/22 05:39:31;;;;;;;17.98;4.80;;;;;;;16.09;84.94;101571.00;5030489;28;20025;-78
2022/07/22 05:41:56;;;;;;;31.33;6.15;;;;;;;16.06;84.31;101571.38;5014038;28;20017;-78
2022/07/22 05:44:21;;;;;;;36.05;6.57;;;;;;;16.19;84.40;101566.19;5029996;28;20045;-78
2022/07/22 05:46:47;;;;;;;30.23;6.15;;;;;;;16.02;84.13;101571.69;5012842;28;20021;-77
2022/07/22 05:49:12;;;;;;;40.30;5.95;;;;;;;15.97;83.42;101568.69;5014815;28;20057;-77
2022/07/22 05:51:38;;;;;;;26.50;6.00;;;;;;;16.15;83.72;101570.28;5032062;28;20034;-77
2022/07/22 05:54:04;;;;;;;32.20;7.18;;;;;;;15.98;84.13;101578.56;5017042;28;20079;-79
2022/07/22 05:56:29;;;;;;;21.00;6.22;;;;;;;16.25;82.75;101571.78;5020423;28;20018;-79
2022/07/22 05:58:55;;;;;;;32.30;6.18;;;;;;;16.28;83.48;101573.31;5037559;28;20025;-79
2022/07/22 06:01:21;;;;;;;19.17;5.88;;;;;;;16.35;81.96;101577.03;5022151;28;20036;-79
2022/07/22 06:03:46;;;;;;;21.52;4.97;;;;;;;16.47;82.32;101575.59;5022114;28;20029;-79
2022/07/22 06:06:12;;;;;;;24.52;5.18;;;;;;;16.48;82.08;101581.91;5021538;28;20025;-79
2022/07/22 06:08:37;;;;;;;40.38;6.05;;;;;;;16.59;80.78;101572.44;5021946;28;20021;-79
2022/07/22 06:11:02;;;;;;;18.73;4.40;;;;;;;16.49;81.27;101573.50;5022342;28;20444;-79
2022/07/22 06:13:28;;;;;;;22.83;5.18;;;;;;;16.37;81.86;101574.97;5021917;28;20052;-78
2022/07/22 06:15:53;;;;;;;27.92;6.45;;;;;;;16.61;81.08;101576.69;5019966;28;20024;-78
2022/07/22 06:18:18;;;;;;;30.95;5.57;;;;;;;16.59;80.21;101575.19;5035683;28;20079;-78
2022/07/22 06:20:45;;;;;;;36.70;6.00;;;;;;;16.64;80.94;101572.78;5017653;28;20377;-78
2022/07/22 06:23:10;;;;;;;25.17;5.93;;;;;;;16.82;81.30;101562.38;5035710;28;20018;-80
2022/07/22 06:25:36;;;;;;;20.30;4.43;;;;;;;16.96;79.30;101572.56;5018903;28;20484;-78
2022/07/22 06:28:01;;;;;;;32.78;5.95;;;;;;;16.61;80.88;101570.38;5021344;28;20099;-78
2022/07/22 06:30:26;;;;;;;23.50;5.57;;;;;;;16.58;80.93;101578.97;5034356;28;20064;-78
2022/07/22 06:32:53;;;;;;;26.05;5.85;;;;;;;16.58;80.50;101578.97;5033692;28;20033;-78
2022/07/22 06:35:18;;;;;;;21.58;4.97;;;;;;;16.92;80.39;101584.91;5034548;28;20043;-78
2022/07/22 06:37:44;;;;;;;27.42;6.60;;;;;;;16.69;79.80;101578.53;5018827;28;20021;-78
2022/07/22 06:40:09;;;;;;;26.65;5.68;;;;;;;16.86;80.39;101585.63;5020140;28;20037;-78
2022/07/22 06:42:35;;;;;;;21.35;5.63;;;;;;;17.03;80.04;101587.22;5036386;28;20049;-78
2022/07/22 06:45:00;;;;;;;21.90;6.15;;;;;;;17.03;79.41;101581.75;5036033;28;20523;-78
2022/07/22 06:47:26;;;;;;;25.17;5.18;;;;;;;17.28;80.07;101578.81;5018849;28;20101;-78
2022/07/22 06:49:51;;;;;;;28.27;5.97;;;;;;;17.35;78.33;101585.22;5035308;28;20021;-78
2022/07/22 06:52:16;;;;;;;26.30;5.43;;;;;;;17.01;79.43;101582.94;5017670;28;20108;-78
2022/07/22 06:54:42;;;;;;;26.30;6.15;;;;;;;17.04;79.08;101583.44;5035178;28;20013;-78
2022/07/22 06:57:07;;;;;;;33.35;6.35;;;;;;;17.25;78.13;101584.63;5036317;28;20017;-78
2022/07/22 06:59:32;;;;;;;34.13;5.72;;;;;;;17.08;76.40;101576.56;5017867;28;20018;-78
2022/07/22 07:01:58;;;;;;;23.58;5.65;;;;;;;16.96;76.25;101591.72;5000931;28;20017;-78
2022/07/22 07:04:24;;;;;;;21.85;5.07;;;;;;;16.96;78.08;101580.78;5012682;28;20218;-79
2022/07/22 07:06:49;;;;;;;27.85;5.68;;;;;;;17.24;76.65;101577.47;5019755;28;20041;-77
2022/07/22 07:09:14;;;;;;;24.10;4.65;;;;;;;17.19;74.79;101585.38;5003549;28;20718;-77
2022/07/22 07:11:40;;;;;;;22.98;5.68;;;;;;;17.10;77.25;101581.84;5023354;28;20076;-77
2022/07/22 07:14:05;;;;;;;25.27;5.70;;;;;;;17.45;76.64;101583.06;5015038;28;20021;-76
2022/07/22 07:16:31;;;;;;;28.67;5.57;;;;;;;17.21;77.03;101588.75;5007332;28;20029;-77
2022/07/22 07:18:57;;;;;;;24.55;6.03;;;;;;;17.29;77.01;101585.97;5010649;28;20028;-76
2022/07/22 07:21:22;;;;;;;30.20;5.63;;;;;;;17.26;75.69;101586.31;5005447;28;20029;-76
2022/07/22 07:23:48;;;;;;;25.40;5.00;;;;;;;17.26;74.75;101594.53;5007213;28;20021;-76
2022/07/22 07:26:13;;;;;;;33.05;6.40;;;;;;;17.39;73.64;101586.53;5015542;28;20017;-76
2022/07/22 07:28:39;;;;;;;19.08;4.65;;;;;;;17.23;75.05;101597.66;5007512;28;20010;-76
2022/07/22 07:31:05;;;;;;;28.73;5.90;;;;;;;17.39;72.45;101608.44;5017392;28;20021;-76
2022/07/22 07:33:30;;;;;;;29.33;4.05;;;;;;;17.42;73.34;101602.63;5008416;28;20068;-78
2022/07/22 07:35:57;;;;;;;25.83;5.15;;;;;;;17.45;73.50;101613.19;5021995;28;20051;-76
2022/07/22 07:38:23;;;;;;;28.08;5.97;;;;;;;17.53;73.14;101615.84;5011304;28;20057;-76
2022/07/22 07:40:48;;;;;;;21.10;4.22;;;;;;;17.33;73.24;101610.03;5023066;28;20064;-76
2022/07/22 07:43:14;;;;;;;29.17;4.80;;;;;;;17.08;74.38;101612.16;5019179;28;20018;-75
2022/07/22 07:45:40;;;;;;;25.25;4.93;;;;;;;17.12;74.19;101600.81;5011044;28;20060;-77
2022/07/22 07:48:06;;;;;;;33.45;5.75;;;;;;;17.13;75.06;101597.03;5006656;28;20022;-77
2022/07/22 07:50:32;;;;;;;29.95;5.43;;;;;;;16.92;74.20;101600.47;5005772;28;20048;-77
2022/07/22 07:52:58;;;;;;;26.38;4.55;;;;;;;16.97;73.54;101604.34;5006007;28;20018;-78
2022/07/22 07:55:24;;;;;;;22.17;4.50;;;;;;;17.17;71.91;101601.13;4991825;28;20089;-75
2022/07/22 07:57:50;;;;;;;30.95;5.18;;;;;;;17.11;71.93;101599.13;5001615;28;20132;-75
2022/07/22 08:00:21;;;;;;;20.55;4.40;;;;;;;17.42;71.71;101597.13;5007862;28;20492;-75
2022/07/22 08:02:47;;;;;;;19.27;4.75;;;;;;;17.40;71.35;101609.28;5013211;28;20025;-75
2022/07/22 08:05:13;;;;;;;30.33;4.53;;;;;;;17.66;70.99;101614.34;5002850;28;20036;-75
2022/07/22 08:07:39;;;;;;;24.20;4.72;;;;;;;17.85;71.10;101605.63;5018282;28;20049;-75
2022/07/22 08:10:06;;;;;;;28.77;4.18;;;;;;;18.09;70.27;101616.31;5006195;28;20051;-75
2022/07/22 08:12:32;;;;;;;31.70;4.85;;;;;;;18.01;69.35;101619.16;5014450;28;20028;-75
2022/07/22 08:14:58;;;;;;;23.58;4.40;;;;;;;17.84;69.40;101617.63;5018254;28;20029;-75
2022/07/22 08:17:23;;;;;;;26.50;4.10;;;;;;;17.92;67.43;101625.75;5005292;28;20487;-75
2022/07/22 08:19:49;;;;;;;21.15;4.30;;;;;;;17.87;68.74;101622.75;5003475;28;20512;-75
2022/07/22 08:22:14;;;;;;;19.48;5.25;;;;;;;17.90;67.82;101628.69;5006405;28;20026;-75
2022/07/22 08:24:39;;;;;;;17.70;4.40;;;;;;;17.82;68.21;101630.66;5015657;28;20020;-75
2022/07/22 08:27:05;;;;;;;24.67;5.00;;;;;;;17.47;68.67;101638.47;5006980;28;20032;-75
2022/07/22 08:29:30;;;;;;;17.83;4.22;;;;;;;17.39;68.65;101635.81;5000759;28;20021;-75
2022/07/22 08:31:56;;;;;;;25.52;4.18;;;;;;;17.51;68.14;101637.09;5003535;28;20025;-75
2022/07/22 08:34:21;;;;;;;27.45;4.57;;;;;;;17.72;68.38;101641.03;4999936;28;20075;-77
2022/07/22 08:36:46;;;;;;;20.40;3.65;;;;;;;17.95;68.31;101641.81;5004911;28;20028;-75
2022/07/22 08:39:12;;;;;;;24.80;3.85;;;;;;;17.92;66.63;101636.69;5007919;28;20052;-75
2022/07/22 08:41:39;;;;;;;20.73;3.70;;;;;;;18.11;64.41;101636.13;5002587;28;20052;-75
2022/07/22 08:44:07;;;;;;;30.13;4.38;;;;;;;17.96;63.31;101638.03;5019593;28;20023;-75
2022/07/22 08:46:33;;;;;;;20.02;3.58;;;;;;;18.01;64.03;101640.22;5010713;28;20026;-75
2022/07/22 08:49:01;;;;;;;21.70;3.45;;;;;;;18.58;61.62;101632.16;4996239;28;20028;-75
2022/07/22 08:51:28;;;;;;;17.60;3.03;;;;;;;18.67;60.23;101636.50;5021982;28;20013;-75
2022/07/22 08:53:56;;;;;;;24.05;3.22;;;;;;;18.81;59.37;101631.16;5005941;28;20029;-75
2022/07/22 08:56:21;;;;;;;15.18;3.10;;;;;;;19.06;59.89;101629.75;5014922;28;20010;-76
2022/07/22 08:58:47;;;;;;;14.88;3.05;;;;;;;18.94;59.80;101631.31;5015297;28;20044;-75
2022/07/22 09:01:15;;;;;;;14.30;3.20;;;;;;;18.64;60.43;101647.81;5023816;28;20048;-75
2022/07/22 09:03:52;;;;;;;21.10;3.63;;;;;;;18.32;61.59;101643.63;5008137;28;20022;-76
2022/07/22 09:06:23;;;;;;;15.25;3.00;;;;;;;18.03;62.95;101647.19;5003935;28;20021;-75
2022/07/22 09:08:56;;;;;;;20.10;3.28;;;;;;;18.18;62.94;101659.00;5019328;28;20025;-77
2022/07/22 09:11:23;;;;;;;17.83;3.38;;;;;;;17.99;62.35;101648.59;5012103;28;20082;-77
2022/07/22 09:13:50;;;;;;;16.13;3.55;;;;;;;18.04;63.01;101662.59;5020422;28;20022;-76
2022/07/22 09:16:16;;;;;;;29.05;3.67;;;;;;;18.10;63.34;101656.38;5019448;28;20014;-75
2022/07/22 09:18:53;;;;;;;18.13;3.40;;;;;;;18.39;62.29;101646.44;5015134;28;20034;-75
2022/07/22 09:21:20;;;;;;;22.15;3.50;;;;;;;18.54;61.73;101636.31;5015916;28;20399;-76
2022/07/22 09:23:45;;;;;;;12.73;2.92;;;;;;;18.69;60.95;101645.38;5004289;28;20022;-76
2022/07/22 09:26:32;;;;;;;20.48;4.13;;;;;;;18.79;59.88;101644.22;5024828;28;20033;-76
2022/07/22 09:28:59;;;;;;;16.95;2.72;;;;;;;18.92;59.31;101639.75;5012897;28;20614;-76
2022/07/22 09:31:31;;;;;;;18.25;3.60;;;;;;;19.22;58.86;101651.44;5005232;28;20033;-76
2022/07/22 09:33:57;;;;;;;;;;;;;;;19.69;57.48;101647.25;5008893;28;20037;-76
2022/07/22 09:36:22;;;;;;;14.85;3.05;;;;;;;19.03;57.53;101641.09;5000498;28;19913;-76
2022/07/22 09:38:48;;;;;;;20.58;3.22;;;;;;;19.12;58.13;101650.94;5007011;28;20140;-75
2022/07/22 09:41:14;;;;;;;15.82;3.33;;;;;;;19.12;58.42;101642.69;5020717;28;20041;-76
2022/07/22 09:43:39;;;;;;;18.65;3.40;;;;;;;18.61;58.56;101642.72;5021406;28;20032;-75
2022/07/22 09:46:05;;;;;;;18.35;2.95;;;;;;;18.44;59.15;101652.19;5022285;28;20036;-75
2022/07/22 09:48:32;;;;;;;22.67;3.33;;;;;;;18.62;58.25;101649.91;5012858;28;20021;-75
2022/07/22 09:50:58;;;;;;;19.65;4.07;;;;;;;18.03;60.63;101671.88;5008103;28;20017;-75
2022/07/22 09:53:30;;;;;;;21.13;3.13;;;;;;;18.30;60.63;101672.25;5023089;28;20476;-75
2022/07/22 09:56:00;;;;;;;15.55;2.97;;;;;;;18.06;61.14;101666.03;5008309;28;20025;-75
2022/07/22 09:58:27;;;;;;;11.35;2.88;;;;;;;18.43;60.14;101672.44;5026571;28;20021;-75
2022/07/22 10:00:54;;;;;;;12.98;2.60;;;;;;;18.40;60.20;101675.56;5022764;28;20021;-75
2022/07/22 10:03:28;;;;;;;18.63;3.08;;;;;;;18.77;59.33;101673.72;5013718;28;20029;-75
2022/07/22 10:05:55;;;;;;;18.60;2.92;;;;;;;18.97;58.53;101666.56;4998221;28;20087;-75
2022/07/22 10:08:23;;;;;;;15.30;3.28;;;;;;;19.16;57.75;101679.66;5019272;28;20025;-75
2022/07/22 10:10:49;;;;;;;16.42;2.55;;;;;;;19.04;58.03;101678.50;5016426;28;20075;-75
2022/07/22 10:13:18;;;;;;;15.52;2.60;;;;;;;19.24;57.89;101665.00;5009721;28;20072;-76
2022/07/22 10:15:45;;;;;;;10.98;2.50;;;;;;;19.34;57.78;101670.13;5021925;28;20033;-75
2022/07/22 10:18:16;;;;;;;16.92;3.47;;;;;;;18.91;58.36;101675.63;5012601;28;20018;-75
2022/07/22 10:20:41;;;;;;;14.20;2.92;;;;;;;19.13;58.60;101674.59;5008412;28;20028;-74
2022/07/22 10:23:09;;;;;;;13.15;2.58;;;;;;;18.75;59.15;101657.47;5014610;28;20021;-76
2022/07/22 10:25:50;;;;;;;16.88;2.92;;;;;;;18.82;59.42;101671.28;5012350;28;20010;-74
2022/07/22 10:28:35;;;;;;;11.20;2.58;;;;;;;19.08;59.32;101674.31;5017493;28;20018;-76
2022/07/22 10:31:24;;;;;;;12.20;2.75;;;;;;;19.20;59.38;101675.50;5089794;22;20334;-76
2022/07/22 10:33:52;;;;;;;12.07;3.03;;;;;;;18.60;60.85;101662.13;5024505;28;20024;-74
2022/07/22 10:36:32;;;;;;;13.15;2.38;;;;;;;18.50;60.50;101678.84;5006288;28;20032;-75
2022/07/22 10:39:13;;;;;;;20.23;3.10;;;;;;;18.41;60.36;101682.75;5019610;28;20033;-75
2022/07/22 10:41:44;;;;;;;18.27;3.65;;;;;;;18.68;59.79;101682.09;5019575;28;20120;-75
2022/07/22 10:44:11;;;;;;;16.73;2.90;;;;;;;18.46;59.95;101687.69;5024440;28;20056;-75
2022/07/22 10:46:52;;;;;;;18.17;3.20;;;;;;;18.72;59.99;101681.72;5019088;28;20098;-75
2022/07/22 10:49:20;;;;;;;12.32;2.67;;;;;;;18.66;58.98;101678.69;5023869;28;20040;-75
2022/07/22 10:52:11;;;;;;;13.32;2.55;;;;;;;18.87;58.39;101677.88;5025343;28;20092;-77
2022/07/22 10:55:14;;;;;;;15.75;2.72;;;;;;;18.58;58.35;101703.47;5034966;28;20028;-75
2022/07/22 10:57:40;;;;;;;19.60;3.22;;;;;;;18.77;58.43;101691.03;5036151;28;20025;-75
2022/07/22 11:00:06;;;;;;;15.52;3.50;;;;;;;18.63;58.44;101695.47;5041822;28;20075;-75
2022/07/22 11:02:35;;;;;;;17.98;2.95;;;;;;;18.42;59.11;101688.03;5042783;28;20021;-75
2022/07/22 11:05:02;;;;;;;14.02;3.33;;;;;;;18.58;59.07;101692.50;5025916;28;20032;-75
2022/07/22 11:07:29;;;;;;;13.75;2.63;;;;;;;19.04;57.40;101684.00;5020342;28;20020;-77
2022/07/22 11:10:11;;;;;;;14.75;2.90;;;;;;;19.52;55.33;101700.75;5044128;28;20024;-75
2022/07/22 11:12:37;;;;;;;19.17;4.10;;;;;;;19.32;54.64;101688.72;5024484;28;20021;-75
2022/07/22 11:15:06;;;;;;;14.82;2.75;;;;;;;19.31;54.43;101692.50;5025284;28;20025;-75